Terminal Aerodrome Forecast
Issued by NWS

Home | Current Version | Previous Version | Graphics & Text | Print | Product List | Glossary On
Versions: 1 2 3 4 5 6 7 8 9 10 11 12 13 14 15 16 17 18 19
924
FTUS43 KMPX 252027 AAB
TAFAXN
TAF AMD
KAXN 252027Z 2520/2618 18007KT P6SM SCT020 BKN030
     FM252200 12008KT P6SM SCT030 BKN100
     FM260100 09007KT P6SM VCTS SCT040CB OVC080CB
      TEMPO 2601/2605 3SM -TSRA BKN040CB
     FM260600 31005KT P6SM OVC050
     FM261600 35007KT P6SM SCT200=

USA.gov is the U.S. government's official web portal to all federal, state and local government web resources and services.